createdAt,value
2022-08-03T00:02:35.914Z,4.30
2022-08-03T00:05:40.356Z,4.20
2022-08-03T00:09:03.204Z,4.60
2022-08-03T00:12:06.993Z,4.33
2022-08-03T00:15:11.292Z,4.70
2022-08-03T00:18:18.426Z,5.20
2022-08-03T00:21:22.648Z,5.37
2022-08-03T00:24:25.508Z,5.33
2022-08-03T00:27:28.433Z,5.10
2022-08-03T00:30:36.442Z,4.43
2022-08-03T00:33:58.229Z,4.77
2022-08-03T00:37:03.525Z,4.90
2022-08-03T00:40:07.676Z,4.60
2022-08-03T00:43:10.770Z,4.20
2022-08-03T00:46:17.532Z,4.67
2022-08-03T00:49:23.873Z,4.90
2022-08-03T00:52:28.142Z,4.53
2022-08-03T00:55:31.104Z,4.87
2022-08-03T00:58:35.654Z,4.23
2022-08-03T01:01:38.634Z,4.73
2022-08-03T01:04:41.559Z,5.07
2022-08-03T01:08:00.597Z,4.90
2022-08-03T01:11:12.088Z,4.60
2022-08-03T01:14:18.764Z,4.40
2022-08-03T01:17:36.897Z,4.83
2022-08-03T01:20:44.700Z,5.17
2022-08-03T01:24:07.049Z,4.90
2022-08-03T01:27:15.988Z,4.30
2022-08-03T01:30:20.428Z,4.27
2022-08-03T01:33:26.395Z,4.60
2022-08-03T01:36:35.274Z,4.73
2022-08-03T01:39:40.516Z,4.50
2022-08-03T01:42:45.326Z,4.67
2022-08-03T01:45:50.088Z,4.67
2022-08-03T01:48:54.082Z,5.13
2022-08-03T01:52:04.367Z,4.83
2022-08-03T01:55:09.663Z,5.00
2022-08-03T01:58:14.681Z,4.70
2022-08-03T02:01:20.192Z,5.10
2022-08-03T02:04:24.822Z,4.90
2022-08-03T02:07:29.976Z,4.90
2022-08-03T02:10:35.913Z,4.83
2022-08-03T02:13:40.334Z,4.70
2022-08-03T02:16:45.771Z,4.60
2022-08-03T02:19:49.810Z,4.33
2022-08-03T02:22:52.729Z,4.33
2022-08-03T02:26:02.122Z,4.33
2022-08-03T02:29:11.880Z,4.33
2022-08-03T02:32:21.361Z,3.90
2022-08-03T02:35:26.462Z,4.27
2022-08-03T02:38:32.838Z,5.00
2022-08-03T02:41:42.917Z,4.30
2022-08-03T02:44:49.377Z,4.53
2022-08-03T02:47:56.450Z,5.53
2022-08-03T02:51:01.735Z,4.50
2022-08-03T02:54:05.924Z,4.50
2022-08-03T02:57:10.467Z,4.70
2022-08-03T03:00:19.667Z,4.33
2022-08-03T03:03:39.951Z,4.60
2022-08-03T03:06:48.715Z,4.10
2022-08-03T03:09:53.379Z,3.40
2022-08-03T03:12:59.112Z,4.13
2022-08-03T03:16:05.259Z,4.00
2022-08-03T03:19:12.388Z,4.30
2022-08-03T03:22:16.690Z,4.90
2022-08-03T03:25:21.195Z,4.47
2022-08-03T03:28:25.153Z,4.20
2022-08-03T03:31:28.136Z,3.83
2022-08-03T03:34:32.622Z,4.30
2022-08-03T03:37:36.200Z,4.00
2022-08-03T03:40:39.575Z,4.23
2022-08-03T03:43:43.033Z,3.97
2022-08-03T03:46:45.981Z,4.13
2022-08-03T03:49:50.560Z,4.57
2022-08-03T03:52:55.443Z,4.27
2022-08-03T03:56:02.481Z,4.60
2022-08-03T03:59:05.856Z,4.10
2022-08-03T04:02:09.685Z,4.60
2022-08-03T04:05:31.824Z,4.40
2022-08-03T04:08:52.391Z,4.40
2022-08-03T04:11:59.664Z,4.43
2022-08-03T04:15:04.550Z,4.43
2022-08-03T04:18:10.778Z,4.53
2022-08-03T04:21:18.577Z,4.63
2022-08-03T04:24:26.540Z,4.70
2022-08-03T04:27:34.180Z,4.20
2022-08-03T04:30:39.707Z,4.70
2022-08-03T04:33:43.761Z,4.80
2022-08-03T04:36:51.197Z,4.57
2022-08-03T04:39:57.731Z,4.40
2022-08-03T04:43:01.549Z,6.70
2022-08-03T04:46:05.760Z,5.33
2022-08-03T04:49:09.173Z,4.93
2022-08-03T04:52:15.760Z,5.67
2022-08-03T04:55:27.200Z,5.80
2022-08-03T04:58:30.075Z,6.70
2022-08-03T05:01:32.996Z,5.10
2022-08-03T05:04:35.840Z,4.83
2022-08-03T05:07:40.118Z,5.63
2022-08-03T05:10:42.965Z,5.27
2022-08-03T05:13:46.163Z,5.83
2022-08-03T05:16:49.037Z,5.57
2022-08-03T05:19:54.247Z,5.40
2022-08-03T05:22:59.253Z,6.40
2022-08-03T05:26:02.077Z,6.23
2022-08-03T05:29:05.043Z,6.23
2022-08-03T05:32:08.503Z,5.70
2022-08-03T05:36:01.895Z,5.97
2022-08-03T05:38:36.369Z,5.33
2022-08-03T05:41:39.193Z,6.13
2022-08-03T05:44:42.157Z,5.47
2022-08-03T05:47:45.507Z,7.77
2022-08-03T05:50:48.456Z,5.17
2022-08-03T05:53:52.652Z,4.80
2022-08-03T05:56:55.472Z,6.30
2022-08-03T05:59:58.974Z,6.47
2022-08-03T06:03:02.392Z,5.60
2022-08-03T06:06:05.462Z,5.07
2022-08-03T06:09:10.486Z,6.70
2022-08-03T06:12:14.321Z,12.00
2022-08-03T06:15:18.655Z,5.50
2022-08-03T06:18:21.602Z,8.27
2022-08-03T06:21:24.433Z,8.73
2022-08-03T06:24:31.425Z,5.00
2022-08-03T06:27:37.359Z,5.13
2022-08-03T06:30:40.537Z,5.87
2022-08-03T06:34:30.096Z,4.80
2022-08-03T06:37:06.241Z,4.23
2022-08-03T06:40:13.876Z,7.63
2022-08-03T06:43:16.993Z,5.33
2022-08-03T06:46:20.214Z,3.83
2022-08-03T06:49:23.292Z,6.77
2022-08-03T06:52:38.031Z,3.77
2022-08-03T06:55:42.713Z,7.50
2022-08-03T06:58:46.915Z,4.03
2022-08-03T07:01:49.808Z,4.97
2022-08-03T07:04:52.722Z,5.83
2022-08-03T07:07:57.073Z,3.33
2022-08-03T07:11:02.375Z,3.60
2022-08-03T07:14:05.814Z,7.28
2022-08-03T07:17:11.656Z,3.30
2022-08-03T07:20:15.252Z,3.87
2022-08-03T07:23:19.358Z,3.38
2022-08-03T07:26:23.687Z,3.42
2022-08-03T07:29:26.672Z,3.47
2022-08-03T07:32:31.528Z,4.07
2022-08-03T07:35:34.676Z,4.13
2022-08-03T07:38:37.799Z,5.30
2022-08-03T07:41:41.983Z,3.30
2022-08-03T07:44:44.862Z,7.07
2022-08-03T07:47:53.465Z,5.10
2022-08-03T07:50:56.827Z,5.57
2022-08-03T07:54:00.785Z,3.57
2022-08-03T07:57:05.254Z,3.10
2022-08-03T08:00:13.727Z,3.20
2022-08-03T08:03:16.572Z,3.20
2022-08-03T08:06:19.493Z,3.27
2022-08-03T08:09:23.448Z,4.03
2022-08-03T08:12:27.677Z,4.07
2022-08-03T08:15:31.582Z,5.93
2022-08-03T08:18:34.518Z,3.90
2022-08-03T08:21:53.039Z,4.17
2022-08-03T08:25:01.262Z,3.80
2022-08-03T08:28:30.619Z,5.30
2022-08-03T08:31:29.044Z,3.60
2022-08-03T08:34:31.905Z,3.00
2022-08-03T08:37:35.649Z,3.40
2022-08-03T08:40:38.522Z,4.47
2022-08-03T08:43:43.415Z,2.87
2022-08-03T08:46:47.934Z,2.90
2022-08-03T08:50:08.982Z,3.03
2022-08-03T08:53:18.177Z,4.20
2022-08-03T08:56:25.378Z,2.60
2022-08-03T08:59:47.681Z,4.10
2022-08-03T09:02:50.957Z,3.13
2022-08-03T09:05:56.152Z,3.13
2022-08-03T09:08:59.458Z,5.15
2022-08-03T09:12:27.176Z,2.65
2022-08-03T09:15:28.388Z,2.77
2022-08-03T09:18:32.602Z,2.80
2022-08-03T09:21:35.843Z,2.67
2022-08-03T09:24:41.839Z,3.25
2022-08-03T09:27:45.950Z,3.65
2022-08-03T09:31:00.726Z,2.75
2022-08-03T09:34:05.292Z,2.78
2022-08-03T09:37:15.158Z,2.83
2022-08-03T09:40:35.723Z,2.80
2022-08-03T09:43:47.552Z,3.20
2022-08-03T09:46:53.322Z,2.25
2022-08-03T09:50:02.166Z,3.00
2022-08-03T09:53:05.209Z,2.67
2022-08-03T09:56:35.654Z,3.13
2022-08-03T09:59:32.593Z,2.72
2022-08-03T10:02:38.622Z,2.88
2022-08-03T10:05:44.530Z,2.38
2022-08-03T10:08:47.372Z,2.63
2022-08-03T10:11:50.425Z,2.42
2022-08-03T10:14:53.766Z,2.78
2022-08-03T10:17:58.024Z,2.53
2022-08-03T10:21:05.628Z,2.40
2022-08-03T10:24:11.005Z,2.20
2022-08-03T10:27:15.744Z,3.22
2022-08-03T10:30:19.365Z,5.82
2022-08-03T10:33:51.744Z,2.95
2022-08-03T10:36:59.878Z,2.58
2022-08-03T10:40:04.541Z,2.47
2022-08-03T10:43:11.257Z,2.42
2022-08-03T10:46:16.816Z,2.95
2022-08-03T10:49:35.179Z,3.15
2022-08-03T10:52:55.461Z,3.33
2022-08-03T10:56:16.954Z,2.30
2022-08-03T10:59:58.058Z,2.28
2022-08-03T11:03:09.934Z,2.70
2022-08-03T11:06:20.208Z,2.25
2022-08-03T11:09:23.005Z,6.28
2022-08-03T11:12:30.855Z,2.60
2022-08-03T11:15:35.969Z,2.70
2022-08-03T11:18:57.286Z,2.58
2022-08-03T11:22:01.788Z,2.60
2022-08-03T11:25:05.260Z,3.53
2022-08-03T11:28:26.217Z,2.17
2022-08-03T11:31:50.252Z,2.60
2022-08-03T11:35:09.093Z,3.42
2022-08-03T11:38:13.813Z,2.72
2022-08-03T11:41:43.369Z,2.40
2022-08-03T11:44:48.848Z,2.40
2022-08-03T11:47:55.379Z,6.32
2022-08-03T11:50:58.312Z,3.03
2022-08-03T11:54:07.088Z,2.20
2022-08-03T11:57:10.198Z,2.72
2022-08-03T12:00:30.270Z,2.70
2022-08-03T12:03:35.561Z,2.60
2022-08-03T12:06:52.710Z,2.20
2022-08-03T12:10:11.002Z,2.00
2022-08-03T12:14:33.127Z,3.90
2022-08-03T12:16:36.933Z,2.20
2022-08-03T12:19:45.851Z,3.28
2022-08-03T12:22:48.787Z,2.97
2022-08-03T12:25:52.956Z,2.70
2022-08-03T12:28:58.325Z,4.18
2022-08-03T12:32:01.453Z,2.85
2022-08-03T12:35:05.970Z,2.85
2022-08-03T12:38:08.879Z,2.65
2022-08-03T12:41:16.000Z,3.70
2022-08-03T12:44:18.926Z,2.83
2022-08-03T12:47:21.830Z,2.08
2022-08-03T12:50:26.564Z,2.30
2022-08-03T12:53:31.016Z,2.13
2022-08-03T12:56:35.368Z,2.22
2022-08-03T12:59:42.411Z,2.05
2022-08-03T13:03:39.664Z,2.60
2022-08-03T13:06:27.523Z,2.53
2022-08-03T13:09:31.890Z,2.20
2022-08-03T13:12:48.352Z,2.75
2022-08-03T13:15:52.269Z,3.40
2022-08-03T13:18:56.207Z,2.20
2022-08-03T13:22:03.664Z,1.92
2022-08-03T13:25:08.485Z,5.57
2022-08-03T13:28:14.461Z,2.00
2022-08-03T13:31:17.812Z,2.25
2022-08-03T13:34:23.470Z,2.38
2022-08-03T13:37:27.660Z,4.05
2022-08-03T13:40:38.334Z,2.17
2022-08-03T13:43:46.182Z,2.15
2022-08-03T13:46:49.457Z,2.63
2022-08-03T13:49:54.171Z,2.10
2022-08-03T13:53:03.381Z,2.20
2022-08-03T13:56:06.274Z,1.67
2022-08-03T13:59:11.033Z,2.33
2022-08-03T14:02:14.014Z,2.00
2022-08-03T14:05:16.896Z,2.33
2022-08-03T14:08:19.741Z,2.75
2022-08-03T14:11:22.664Z,2.45
2022-08-03T14:14:26.866Z,2.40
2022-08-03T14:17:37.482Z,2.15
2022-08-03T14:20:56.370Z,3.00
2022-08-03T14:24:00.296Z,2.40
2022-08-03T14:27:08.825Z,2.38
2022-08-03T14:30:14.950Z,2.15
2022-08-03T14:33:17.913Z,2.22
2022-08-03T14:36:20.843Z,2.85
2022-08-03T14:39:23.762Z,2.05
2022-08-03T14:42:26.630Z,3.25
2022-08-03T14:45:30.967Z,2.33
2022-08-03T14:50:34.123Z,2.40
2022-08-03T14:51:56.724Z,2.00
2022-08-03T14:55:00.081Z,2.88
2022-08-03T14:58:05.690Z,2.10
2022-08-03T15:02:02.856Z,2.22
2022-08-03T15:04:47.197Z,2.40
2022-08-03T15:07:50.060Z,2.22
2022-08-03T15:10:53.160Z,4.97
2022-08-03T15:13:56.076Z,2.50
2022-08-03T15:17:00.320Z,2.72
2022-08-03T15:20:19.570Z,2.63
2022-08-03T15:23:26.414Z,2.35
2022-08-03T15:26:35.358Z,2.33
2022-08-03T15:30:07.717Z,2.10
2022-08-03T15:33:07.253Z,2.20
2022-08-03T15:36:10.200Z,4.72
2022-08-03T15:39:13.258Z,2.20
2022-08-03T15:42:16.188Z,2.70
2022-08-03T15:45:20.347Z,2.15
2022-08-03T15:48:26.448Z,3.03
2022-08-03T15:51:29.789Z,2.10
2022-08-03T15:54:32.643Z,2.63
2022-08-03T15:59:11.351Z,2.78
2022-08-03T16:01:02.068Z,3.08
2022-08-03T16:04:06.412Z,2.45
2022-08-03T16:07:12.673Z,3.08
2022-08-03T16:10:17.636Z,2.70
2022-08-03T16:13:20.534Z,2.25
2022-08-03T16:16:23.673Z,2.20
2022-08-03T16:19:28.648Z,2.30
2022-08-03T16:22:31.633Z,2.35
2022-08-03T16:25:36.053Z,2.60
2022-08-03T16:28:38.939Z,3.58
2022-08-03T16:31:50.857Z,2.80
2022-08-03T16:34:55.745Z,4.60
2022-08-03T16:37:58.766Z,2.42
2022-08-03T16:41:01.573Z,2.42
2022-08-03T16:44:09.577Z,2.60
2022-08-03T16:47:21.913Z,2.55
2022-08-03T16:50:26.979Z,2.83
2022-08-03T16:53:51.788Z,2.45
2022-08-03T16:56:52.839Z,2.47
2022-08-03T16:59:56.229Z,2.92
2022-08-03T17:03:04.067Z,2.50
2022-08-03T17:06:09.374Z,2.38
2022-08-03T17:09:14.333Z,2.75
2022-08-03T17:12:17.619Z,3.05
2022-08-03T17:15:21.540Z,2.95
2022-08-03T17:18:47.850Z,3.10
2022-08-03T17:22:04.254Z,2.75
2022-08-03T17:25:10.577Z,3.28
2022-08-03T17:28:48.896Z,3.33
2022-08-03T17:31:53.710Z,3.45
2022-08-03T17:34:56.980Z,3.60
2022-08-03T17:38:03.262Z,3.28
2022-08-03T17:41:10.609Z,3.08
2022-08-03T17:44:28.810Z,3.10
2022-08-03T17:47:42.165Z,3.22
2022-08-03T17:50:51.879Z,3.15
2022-08-03T17:54:05.107Z,3.97
2022-08-03T17:57:27.485Z,3.42
2022-08-03T18:00:56.345Z,3.55
2022-08-03T18:04:10.895Z,3.20
2022-08-03T18:07:18.852Z,3.65
2022-08-03T18:10:28.247Z,3.47
2022-08-03T18:13:35.973Z,4.68
2022-08-03T18:16:45.818Z,5.05
2022-08-03T18:20:02.766Z,4.68
2022-08-03T18:23:10.918Z,4.85
2022-08-03T18:26:30.689Z,5.38
2022-08-03T18:29:37.116Z,4.90
2022-08-03T18:32:41.150Z,4.72
2022-08-03T18:35:53.717Z,4.78
2022-08-03T18:38:58.529Z,3.95
2022-08-03T18:42:05.425Z,4.50
2022-08-03T18:45:56.173Z,5.30
2022-08-03T18:48:41.486Z,6.43
2022-08-03T18:51:55.037Z,5.75
2022-08-03T18:55:19.876Z,6.20
2022-08-03T18:58:33.171Z,6.15
2022-08-03T19:01:58.997Z,6.20
2022-08-03T19:05:07.994Z,5.75
2022-08-03T19:08:17.836Z,6.03
2022-08-03T19:14:54.749Z,6.20
2022-08-03T19:18:00.829Z,6.37
2022-08-03T19:21:12.766Z,5.73
2022-08-03T19:24:20.917Z,5.37
2022-08-03T19:27:27.399Z,6.13
2022-08-03T19:30:38.909Z,5.47
2022-08-03T19:33:55.913Z,5.43
2022-08-03T19:37:00.521Z,6.40
2022-08-03T19:40:03.516Z,6.50
2022-08-03T19:43:10.803Z,7.40
2022-08-03T19:46:22.639Z,7.47
2022-08-03T19:50:05.128Z,6.60
2022-08-03T19:53:05.032Z,7.90
2022-08-03T19:56:08.419Z,6.97
2022-08-03T19:59:14.492Z,6.90
2022-08-03T20:02:27.195Z,7.40
2022-08-03T20:05:44.911Z,7.97
2022-08-03T20:08:54.921Z,7.77
2022-08-03T20:11:58.838Z,7.63
2022-08-03T20:15:02.064Z,7.37
2022-08-03T20:18:06.391Z,8.30
2022-08-03T20:21:20.373Z,8.23
2022-08-03T20:24:27.201Z,9.80
2022-08-03T20:28:08.149Z,8.63
2022-08-03T20:30:59.937Z,8.70
2022-08-03T20:34:05.034Z,8.60
2022-08-03T20:37:09.531Z,8.80
2022-08-03T20:40:15.076Z,9.27
2022-08-03T20:43:19.987Z,9.57
2022-08-03T20:46:31.293Z,9.67
2022-08-03T20:49:46.368Z,9.07
2022-08-03T20:52:50.668Z,12.47
2022-08-03T20:56:01.936Z,10.37
2022-08-03T20:59:07.025Z,12.37
2022-08-03T21:02:19.906Z,13.43
2022-08-03T21:05:51.567Z,12.43
2022-08-03T21:09:05.085Z,13.57
2022-08-03T21:12:15.449Z,13.93
2022-08-03T21:13:12.763Z,5.83
2022-08-03T21:16:12.868Z,14.10
2022-08-03T21:18:52.230Z,13.70
2022-08-03T21:21:57.054Z,13.30
2022-08-03T21:25:03.205Z,14.80
2022-08-03T21:28:08.565Z,14.60
2022-08-03T21:31:12.021Z,14.30
2022-08-03T21:34:15.267Z,13.73
2022-08-03T21:37:19.525Z,14.53
2022-08-03T21:40:22.469Z,16.50
2022-08-03T21:43:25.610Z,13.30
2022-08-03T21:46:34.049Z,14.20
2022-08-03T21:50:02.669Z,15.23
2022-08-03T21:53:02.328Z,13.83
2022-08-03T21:56:10.915Z,15.50
2022-08-03T21:59:18.362Z,15.13
2022-08-03T22:02:24.535Z,42.37
2022-08-03T22:05:43.322Z,33.00
2022-08-03T22:08:48.721Z,31.43
2022-08-03T22:11:54.079Z,28.97
2022-08-03T22:15:01.380Z,30.97
2022-08-03T22:18:05.881Z,29.13
2022-08-03T22:21:11.527Z,27.77
2022-08-03T22:24:19.363Z,22.13
2022-08-03T22:27:31.456Z,21.73
2022-08-03T22:30:34.859Z,17.33
2022-08-03T22:33:38.709Z,17.17
2022-08-03T22:36:41.838Z,15.53
2022-08-03T22:39:46.355Z,16.10
2022-08-03T22:42:51.931Z,19.77
2022-08-03T22:46:10.599Z,13.60
2022-08-03T22:49:17.358Z,14.07
2022-08-03T22:52:21.336Z,13.40
2022-08-03T22:55:26.077Z,15.03
2022-08-03T22:58:29.061Z,13.67
2022-08-03T23:01:38.136Z,12.67
2022-08-03T23:04:43.366Z,13.20
2022-08-03T23:07:49.939Z,13.07
2022-08-03T23:10:57.307Z,12.70
2022-08-03T23:14:01.732Z,11.30
2022-08-03T23:17:08.249Z,11.07
2022-08-03T23:20:11.990Z,11.23
2022-08-03T23:23:15.966Z,11.30
2022-08-03T23:26:26.660Z,10.77
2022-08-03T23:29:31.316Z,10.93
2022-08-03T23:32:36.107Z,10.67
2022-08-03T23:36:29.637Z,10.07
2022-08-03T23:39:23.047Z,9.63
2022-08-03T23:42:28.240Z,10.17
2022-08-03T23:45:34.801Z,9.67
2022-08-03T23:48:37.817Z,9.57
2022-08-03T23:51:48.798Z,9.83
2022-08-03T23:55:01.005Z,9.30
2022-08-03T23:58:18.052Z,9.30
